Forside
METAR-TAF:

METAR-TAF

Lufthavne :

Balkhash, Kasakhstan

Breddekreds: 46-53-38N, længdekreds: 075-00-19E, højde: 440 m

Aktuelle vejr

Denne rapport blev lavet for 12 timer og 51 minutter siden, kl. 11:00 UTC
Vind 12 kt fra vestsydvest
Temperatur 30°C
Fugtighed 31%
Tryk 1000 hPa
Sigt 10 km eller mere
Nogle få skyer i en højde af 3300 ft, Cumulonimbus.

METAR: UAAH 161100Z 25006MPS 9999 FEW033CB 30/11 Q1000 NOSIG RMK QFE714/0952

Tid: 05:51 (23:51 UTC)

Vejrudsigter

Denne rapport blev lavet for 12 timer og 49 minutter siden, kl. 11:02 UTC
Foreløbig gælder fra 16 på 12 UTC til 16 på 21 UTC
Vind 16 kt fra vestsydvest
Sigt 10 km eller mere
Spredte skyer i en højde af 4000 ft, Cumulonimbus.
Midlertidig
fra 16 på 12 UTC til 16 på 18 UTC
Vind 31 kt fra varierende retninger
Sigt: 3000 m
Brudte skyer i en højde af 3000 ft, Cumulonimbus.
tordenbyger, let regn, vindstød

TAF: UAAH 161102Z 1612/1621 24008MPS 9999 SCT040CB TEMPO 1612/1618 VRB16MPS 3000 -TSRA SQ BKN030CB

Vejrobservationer og prognoser fra mere end 4000 lufthavne (METAR og TAF).

De gule og røde prikker repræsenterer de meteorologiske stationer.

Flyt musen over at se navnet på stationen.

Så klik over at se vejr observationer og prognoser.

At skifte det kort: Klik på de grønne knapper med et sort kors for at zoome ind; på den grønne knap med en bindestreg for at zoome ud; eller på de grønne pile for tilstødende kort.


METAR-TAF: